Time;durP1;ratioP1;P1;durP2;ratioP2;P2;SDS_P1;SDS_P2;PMS_P1;PMS_P2;Temp;Humidity;BMP_temperature;BMP_pressure;BME280_temperature;BME280_humidity;BME280_pressure;Samples;Min_cycle;Max_cycle;Signal;HPM_P1;HPM_P2
2022/10/11 00:00:31;;;;;;;9.40;3.38;;;19.70;99.90;;;;;;5133777;27;20538;-81
2022/10/11 00:02:58;;;;;;;9.65;3.15;;;19.70;99.90;;;;;;5134021;27;20027;-81
2022/10/11 00:05:24;;;;;;;9.43;3.30;;;19.70;99.90;;;;;;5133987;27;20205;-82
2022/10/11 00:07:51;;;;;;;12.68;3.45;;;19.60;99.90;;;;;;5133747;27;20045;-81
2022/10/11 00:10:20;;;;;;;14.15;3.67;;;19.50;99.90;;;;;;5133857;27;20450;-80
2022/10/11 00:12:46;;;;;;;9.05;3.35;;;19.50;99.90;;;;;;5115036;27;20394;-81
2022/10/11 00:15:15;;;;;;;14.30;3.50;;;19.40;99.90;;;;;;5115131;27;20117;-82
2022/10/11 00:17:41;;;;;;;9.27;3.97;;;19.40;99.90;;;;;;5133677;27;20420;-81
2022/10/11 00:20:08;;;;;;;14.43;3.97;;;19.40;99.90;;;;;;5133449;27;20096;-81
2022/10/11 00:22:34;;;;;;;;;;;19.40;99.90;;;;;;5133312;27;20106;-82
2022/10/11 00:25:00;;;;;;;;;;;19.30;99.90;;;;;;5133979;27;19968;-81
2022/10/11 00:27:26;;;;;;;8.40;3.30;;;19.40;99.90;;;;;;5133488;27;19994;-81
2022/10/11 00:29:52;;;;;;;10.65;3.50;;;19.40;99.90;;;;;;5133684;27;20033;-81
2022/10/11 00:32:19;;;;;;;13.23;3.88;;;19.30;99.90;;;;;;5133364;27;20023;-81
2022/10/11 00:34:45;;;;;;;21.98;3.90;;;19.30;99.90;;;;;;5133704;27;20046;-81
2022/10/11 00:37:11;;;;;;;9.50;3.80;;;19.30;99.90;;;;;;5133828;27;20349;-82
2022/10/11 00:39:37;;;;;;;13.52;3.78;;;19.30;99.90;;;;;;5114792;27;20100;-81
2022/10/11 00:42:03;;;;;;;14.18;3.75;;;19.30;99.90;;;;;;5133644;27;20447;-81
2022/10/11 00:44:32;;;;;;;9.10;3.30;;;19.30;99.90;;;;;;5133508;27;20023;-82
2022/10/11 00:47:05;;;;;;;14.10;3.60;;;19.30;99.90;;;;;;5133040;27;20059;-81
2022/10/11 00:49:47;;;;;;;11.98;3.47;;;19.30;99.90;;;;;;5132978;27;20019;-81
2022/10/11 00:52:30;;;;;;;11.45;3.83;;;19.30;99.90;;;;;;5115163;27;20123;-82
2022/10/11 00:55:07;;;;;;;14.00;3.75;;;19.30;99.90;;;;;;5133261;27;20019;-81
2022/10/11 00:57:38;;;;;;;12.75;3.42;;;19.30;99.90;;;;;;5132571;27;20180;-81
2022/10/11 01:00:09;;;;;;;9.40;3.63;;;19.40;99.90;;;;;;5132630;27;20084;-81
2022/10/11 01:02:36;;;;;;;11.30;3.17;;;19.40;99.90;;;;;;5132535;27;20031;-81
2022/10/11 01:05:04;;;;;;;13.55;3.55;;;19.30;99.90;;;;;;5114014;27;20053;-81
2022/10/11 01:07:31;;;;;;;6.88;3.58;;;19.30;99.90;;;;;;5113885;27;20107;-81
2022/10/11 01:09:57;;;;;;;18.05;3.85;;;19.40;99.90;;;;;;5132397;27;20023;-81
2022/10/11 01:12:28;;;;;;;11.18;3.58;;;19.40;99.90;;;;;;5132399;27;20031;-81
2022/10/11 01:15:00;;;;;;;9.05;3.45;;;19.40;99.90;;;;;;5132390;27;20091;-81
2022/10/11 01:17:50;;;;;;;13.30;3.75;;;19.40;99.90;;;;;;5132579;27;20023;-82
2022/10/11 01:20:44;;;;;;;11.68;3.50;;;19.40;99.90;;;;;;5132509;27;20054;-81
2022/10/11 01:23:25;;;;;;;8.18;3.50;;;19.40;99.90;;;;;;5132518;27;20030;-81
2022/10/11 01:26:09;;;;;;;15.27;4.63;;;19.40;99.90;;;;;;5113493;27;20050;-81
2022/10/11 01:28:56;;;;;;;15.73;3.92;;;19.40;99.90;;;;;;5132423;27;20054;-81
2022/10/11 01:31:39;;;;;;;10.68;3.42;;;19.30;99.90;;;;;;5132522;27;20098;-81
2022/10/11 01:34:13;;;;;;;17.63;3.38;;;19.30;99.90;;;;;;5131507;27;20052;-81
2022/10/11 01:36:49;;;;;;;13.25;4.07;;;19.30;99.90;;;;;;5132487;27;20114;-81
2022/10/11 01:39:22;;;;;;;14.10;4.05;;;19.20;99.90;;;;;;5132224;27;20098;-81
2022/10/11 01:41:55;;;;;;;9.73;3.65;;;19.20;99.90;;;;;;5132315;27;20027;-81
2022/10/11 01:44:24;;;;;;;13.45;4.22;;;19.20;99.90;;;;;;5132286;27;20142;-81
2022/10/11 01:46:53;;;;;;;13.02;4.10;;;19.20;99.90;;;;;;5131920;27;20050;-81
2022/10/11 01:49:20;;;;;;;13.05;3.58;;;19.20;99.90;;;;;;5131798;27;20015;-82
2022/10/11 01:51:50;;;;;;;15.23;4.10;;;19.30;99.90;;;;;;5131812;27;20359;-81
2022/10/11 01:54:43;;;;;;;11.05;4.07;;;19.30;99.90;;;;;;5131735;27;20023;-82
2022/10/11 01:57:50;;;;;;;13.05;4.25;;;19.30;99.90;;;;;;5132052;28;20034;-81
2022/10/11 02:00:38;;;;;;;11.32;3.60;;;19.30;99.90;;;;;;5131688;28;20054;-82
2022/10/11 02:03:40;;;;;;;11.23;3.40;;;19.30;99.90;;;;;;5132398;28;20046;-82
2022/10/11 02:06:12;;;;;;;11.45;3.55;;;19.20;99.90;;;;;;5132323;28;20051;-81
2022/10/11 02:08:59;;;;;;;18.65;3.42;;;19.20;99.90;;;;;;5132028;28;20077;-82
2022/10/11 02:11:31;;;;;;;14.93;4.15;;;19.20;99.90;;;;;;5131983;28;20102;-81
2022/10/11 02:14:14;;;;;;;10.55;4.05;;;19.20;99.90;;;;;;5131959;28;20027;-81
2022/10/11 02:16:50;;;;;;;11.88;4.05;;;19.20;99.90;;;;;;5132032;28;20027;-81
2022/10/11 02:19:21;;;;;;;13.80;4.00;;;19.10;99.90;;;;;;5132014;28;20020;-81
2022/10/11 02:21:54;;;;;;;10.02;3.78;;;19.00;99.90;;;;;;5131944;28;20062;-81
2022/10/11 02:24:34;;;;;;;14.10;4.15;;;19.00;99.90;;;;;;5131694;28;20023;-81
2022/10/11 02:27:03;;;;;;;9.23;3.60;;;19.00;99.90;;;;;;5131459;28;20397;-80
2022/10/11 02:29:33;;;;;;;11.40;4.28;;;19.00;99.90;;;;;;5131419;28;20091;-81
2022/10/11 02:31:59;;;;;;;15.90;4.03;;;19.00;99.90;;;;;;5131521;28;20106;-81
2022/10/11 02:34:30;;;;;;;;;;;19.00;99.90;;;;;;5131718;28;20175;-81
2022/10/11 02:37:14;;;;;;;15.05;4.47;;;19.00;99.90;;;;;;5130769;28;20316;-81
2022/10/11 02:40:00;;;;;;;11.00;4.32;;;19.00;99.90;;;;;;5131465;28;20058;-82
2022/10/11 02:42:35;;;;;;;12.20;4.50;;;18.90;99.90;;;;;;5131588;28;20104;-81
2022/10/11 02:45:30;;;;;;;14.77;4.80;;;18.80;99.90;;;;;;5132396;27;20039;-81
2022/10/11 02:48:15;;;;;;;13.90;4.30;;;18.80;99.90;;;;;;5129107;27;20096;-81
2022/10/11 02:50:41;;;;;;;9.90;4.40;;;18.80;99.90;;;;;;5134328;27;20596;-81
2022/10/11 02:53:08;;;;;;;15.52;4.47;;;18.80;99.90;;;;;;5134562;27;20497;-81
2022/10/11 02:55:35;;;;;;;9.15;3.65;;;18.80;99.90;;;;;;5134410;27;20042;-81
2022/10/11 02:58:01;;;;;;;14.93;3.97;;;18.80;99.90;;;;;;5134633;27;20102;-81
2022/10/11 03:00:27;;;;;;;15.10;4.15;;;18.80;99.90;;;;;;5134185;27;20057;-81
2022/10/11 03:02:53;;;;;;;15.05;4.85;;;18.80;99.90;;;;;;5134657;27;20034;-81
2022/10/11 03:05:19;;;;;;;15.38;4.20;;;18.80;99.90;;;;;;5134517;27;20463;-81
2022/10/11 03:07:45;;;;;;;12.90;4.10;;;18.80;99.90;;;;;;5134710;27;20121;-81
2022/10/11 03:10:11;;;;;;;10.45;4.20;;;18.70;99.90;;;;;;5135256;27;20059;-81
2022/10/11 03:12:37;;;;;;;9.88;3.80;;;18.70;99.90;;;;;;5135167;27;20098;-81
2022/10/11 03:15:04;;;;;;;13.93;4.60;;;18.70;99.90;;;;;;5135045;27;20241;-81
2022/10/11 03:17:30;;;;;;;6.78;3.40;;;18.70;99.90;;;;;;5135079;27;20277;-81
2022/10/11 03:19:56;;;;;;;9.87;4.10;;;18.70;99.90;;;;;;5116248;27;20031;-81
2022/10/11 03:22:22;;;;;;;13.20;4.57;;;18.70;99.90;;;;;;5135035;27;20261;-82
2022/10/11 03:24:48;;;;;;;16.15;4.22;;;18.60;99.90;;;;;;5136287;27;20023;-81
2022/10/11 03:27:14;;;;;;;11.77;4.15;;;18.60;99.90;;;;;;5136601;27;20375;-82
2022/10/11 03:29:40;;;;;;;11.82;3.83;;;18.60;99.90;;;;;;5117561;27;20019;-81
2022/10/11 03:32:06;;;;;;;8.10;3.65;;;18.60;99.90;;;;;;5136127;27;20027;-80
2022/10/11 03:34:32;;;;;;;12.40;4.97;;;18.50;99.90;;;;;;5136161;27;20023;-82
2022/10/11 03:36:58;;;;;;;11.75;3.95;;;18.60;99.90;;;;;;5135984;27;20023;-82
2022/10/11 03:39:24;;;;;;;11.88;4.35;;;18.50;99.90;;;;;;5135549;27;20027;-83
2022/10/11 03:41:50;;;;;;;12.27;4.38;;;18.50;99.90;;;;;;5135603;27;20023;-82
2022/10/11 03:44:17;;;;;;;12.27;4.00;;;18.50;99.90;;;;;;5135943;27;20031;-82
2022/10/11 03:46:43;;;;;;;8.70;3.50;;;18.50;99.90;;;;;;5135609;27;20102;-81
2022/10/11 03:49:09;;;;;;;9.98;3.83;;;18.50;99.90;;;;;;5136056;27;20474;-82
2022/10/11 03:51:35;;;;;;;10.68;3.75;;;18.50;99.90;;;;;;5136043;27;20047;-81
2022/10/11 03:54:01;;;;;;;11.90;3.20;;;18.50;99.90;;;;;;5116880;27;20116;-81
2022/10/11 03:56:27;;;;;;;10.18;3.25;;;18.60;99.90;;;;;;5134663;27;20097;-82
2022/10/11 03:58:53;;;;;;;11.80;3.28;;;18.60;99.90;;;;;;5135408;27;20031;-81
2022/10/11 04:01:19;;;;;;;13.33;3.23;;;18.70;99.90;;;;;;5135111;27;20039;-82
2022/10/11 04:03:45;;;;;;;10.85;3.28;;;18.70;99.90;;;;;;5135498;27;20256;-81
2022/10/11 04:06:11;;;;;;;10.07;3.53;;;18.70;99.90;;;;;;5135228;27;20059;-82
2022/10/11 04:08:37;;;;;;;13.57;3.63;;;18.70;99.90;;;;;;5135190;27;20047;-82
2022/10/11 04:11:03;;;;;;;5.30;2.53;;;18.70;99.90;;;;;;5116626;27;20295;-83
2022/10/11 04:13:30;;;;;;;10.57;3.15;;;18.70;99.90;;;;;;5135488;27;20285;-81
2022/10/11 04:15:56;;;;;;;9.27;3.40;;;18.70;99.90;;;;;;5134950;27;20106;-79
2022/10/11 04:18:22;;;;;;;6.95;3.47;;;18.70;99.90;;;;;;5135131;27;20103;-81
2022/10/11 04:20:48;;;;;;;10.48;3.20;;;18.60;99.90;;;;;;5135445;27;20027;-81
2022/10/11 04:23:14;;;;;;;12.20;3.55;;;18.60;99.90;;;;;;5135507;27;20019;-81
2022/10/11 04:25:40;;;;;;;11.38;3.10;;;18.50;99.90;;;;;;5117059;27;20029;-82
2022/10/11 04:28:07;;;;;;;9.27;3.42;;;18.50;99.90;;;;;;5135924;27;20042;-81
2022/10/11 04:30:33;;;;;;;8.82;3.50;;;18.40;99.90;;;;;;5135312;27;20030;-81
2022/10/11 04:32:59;;;;;;;10.70;3.10;;;18.50;99.90;;;;;;5135418;27;20076;-82
2022/10/11 04:35:25;;;;;;;8.95;3.50;;;18.50;99.90;;;;;;5135230;27;20356;-81
2022/10/11 04:37:51;;;;;;;7.05;3.10;;;18.50;99.90;;;;;;5135665;27;20036;-81
2022/10/11 04:40:17;;;;;;;10.98;3.47;;;18.50;99.90;;;;;;5116565;27;20216;-81
2022/10/11 04:42:44;;;;;;;8.93;3.78;;;18.50;99.90;;;;;;5135677;27;20107;-83
2022/10/11 04:45:10;;;;;;;11.82;3.60;;;18.50;99.90;;;;;;5135295;27;20035;-83
2022/10/11 04:47:36;;;;;;;10.52;3.50;;;18.40;99.90;;;;;;5134896;27;20068;-80
2022/10/11 04:50:03;;;;;;;;;;;18.40;99.90;;;;;;5135356;27;20042;-82
2022/10/11 04:52:29;;;;;;;;;;;18.40;99.90;;;;;;5135541;27;20059;-82
2022/10/11 04:54:55;;;;;;;12.32;3.90;;;18.30;99.90;;;;;;5135071;27;20363;-82
2022/10/11 04:57:21;;;;;;;10.45;3.63;;;18.20;99.90;;;;;;5134693;27;20023;-82
2022/10/11 04:59:47;;;;;;;6.75;3.08;;;18.20;99.90;;;;;;5134563;27;20113;-81
2022/10/11 05:02:13;;;;;;;11.25;4.38;;;18.20;99.90;;;;;;5104293;28;20413;-82
2022/10/11 05:04:39;;;;;;;12.05;4.60;;;18.10;99.90;;;;;;5113817;28;20527;-81
2022/10/11 05:07:05;;;;;;;10.38;4.03;;;18.00;99.90;;;;;;5113724;27;20030;-81
2022/10/11 05:09:31;;;;;;;9.98;3.97;;;17.90;99.90;;;;;;5113620;28;20479;-82
2022/10/11 05:11:57;;;;;;;7.25;3.95;;;17.90;99.90;;;;;;5114000;28;20023;-82
2022/10/11 05:14:23;;;;;;;8.68;3.33;;;17.90;99.90;;;;;;5114116;28;20022;-83
2022/10/11 05:16:49;;;;;;;12.93;3.97;;;17.80;99.90;;;;;;5112354;28;20031;-82
2022/10/11 05:19:15;;;;;;;9.13;3.67;;;17.80;99.90;;;;;;5112003;28;20837;-83
2022/10/11 05:21:41;;;;;;;11.50;3.20;;;17.80;99.90;;;;;;5112214;28;20269;-82
2022/10/11 05:24:08;;;;;;;8.32;3.45;;;17.90;99.90;;;;;;5112041;28;20459;-82
2022/10/11 05:26:34;;;;;;;9.77;3.50;;;17.90;99.90;;;;;;5113399;28;20020;-82
2022/10/11 05:29:00;;;;;;;9.77;4.00;;;17.90;99.90;;;;;;5113615;28;20023;-82
2022/10/11 05:31:26;;;;;;;5.63;3.30;;;17.90;99.90;;;;;;5112173;28;20449;-82
2022/10/11 05:33:52;;;;;;;9.70;3.67;;;18.00;99.90;;;;;;5113750;28;20023;-82
2022/10/11 05:36:18;;;;;;;9.27;3.67;;;18.00;99.90;;;;;;5113366;28;20499;-83
2022/10/11 05:38:44;;;;;;;6.82;2.70;;;18.10;99.90;;;;;;5113342;28;20387;-82
2022/10/11 05:41:13;;;;;;;12.55;3.15;;;18.30;99.90;;;;;;5112959;28;20138;-81
2022/10/11 05:43:39;;;;;;;7.07;3.00;;;18.50;99.90;;;;;;5111285;28;20060;-81
2022/10/11 05:46:05;;;;;;;6.03;2.78;;;18.60;99.90;;;;;;5113574;28;20035;-81
2022/10/11 05:48:31;;;;;;;4.93;2.45;;;18.70;99.90;;;;;;5112414;28;20368;-83
2022/10/11 05:51:00;;;;;;;6.95;2.35;;;18.90;99.90;;;;;;5110306;28;20023;-82
2022/10/11 05:53:27;;;;;;;8.50;2.60;;;19.10;99.90;;;;;;5109846;28;20031;-82
2022/10/11 05:55:53;;;;;;;8.80;2.20;;;19.40;99.90;;;;;;5112047;28;20103;-82
2022/10/11 05:58:19;;;;;;;12.52;2.90;;;19.60;99.90;;;;;;5112101;28;20026;-82
2022/10/11 06:00:45;;;;;;;9.43;2.38;;;19.70;99.90;;;;;;5118882;28;20122;-80
2022/10/11 06:03:12;;;;;;;6.97;2.10;;;19.80;99.90;;;;;;5114108;28;20020;-82
2022/10/11 06:05:38;;;;;;;5.72;2.47;;;19.90;99.90;;;;;;5132714;28;20031;-80
2022/10/11 06:08:07;;;;;;;6.60;1.77;;;20.30;99.90;;;;;;5132491;28;20031;-82
2022/10/11 06:10:37;;;;;;;8.35;2.38;;;20.70;99.90;;;;;;5114151;28;20027;-82
2022/10/11 06:13:04;;;;;;;9.45;2.03;;;20.80;99.90;;;;;;5114124;28;20031;-82
2022/10/11 06:15:30;;;;;;;;;;;21.00;99.90;;;;;;5133646;28;20027;-83
2022/10/11 06:17:57;;;;;;;4.93;1.70;;;21.40;99.90;;;;;;5115145;28;19903;-83
2022/10/11 06:20:24;;;;;;;8.23;2.17;;;21.60;99.90;;;;;;5115622;27;20031;-82
2022/10/11 06:22:50;;;;;;;7.55;2.30;;;21.60;99.90;;;;;;5137073;27;20027;-81
2022/10/11 06:25:16;;;;;;;7.78;2.10;;;21.90;99.90;;;;;;5136943;27;20027;-80
2022/10/11 06:27:43;;;;;;;6.85;2.00;;;22.20;99.90;;;;;;5137184;27;20022;-82
2022/10/11 06:30:10;;;;;;;9.57;2.03;;;22.20;99.90;;;;;;5136213;27;20430;-82
2022/10/11 06:32:36;;;;;;;9.25;1.85;;;22.30;99.90;;;;;;5136959;27;20098;-82
2022/10/11 06:35:03;;;;;;;7.35;1.75;;;22.80;99.90;;;;;;5137169;27;20058;-82
2022/10/11 06:37:29;;;;;;;4.97;1.73;;;23.10;99.90;;;;;;5137076;27;20106;-81
2022/10/11 06:39:55;;;;;;;9.45;1.95;;;22.90;99.90;;;;;;5118041;27;20039;-81
2022/10/11 06:42:21;;;;;;;9.35;2.00;;;23.10;99.90;;;;;;5136433;27;20470;-82
2022/10/11 06:44:47;;;;;;;6.38;1.70;;;23.10;99.90;;;;;;5136095;27;20029;-82
2022/10/11 06:47:13;;;;;;;15.65;2.30;;;23.50;99.90;;;;;;5136194;27;20023;-82
2022/10/11 06:49:39;;;;;;;7.85;2.05;;;24.00;99.90;;;;;;5117407;27;20031;-83
2022/10/11 06:52:05;;;;;;;6.75;1.80;;;24.20;99.90;;;;;;5117344;27;20020;-82
2022/10/11 06:54:31;;;;;;;7.75;1.80;;;24.30;99.90;;;;;;5117225;27;20071;-82
2022/10/11 06:56:58;;;;;;;9.55;2.00;;;24.60;99.90;;;;;;5135927;27;20112;-77
2022/10/11 06:59:24;;;;;;;9.30;2.00;;;24.80;99.90;;;;;;5117460;27;20400;-75
2022/10/11 07:01:50;;;;;;;7.50;2.10;;;24.90;99.90;;;;;;5135115;27;20047;-78
2022/10/11 07:04:16;;;;;;;8.60;1.80;;;24.90;99.90;;;;;;5136042;27;20027;-83
2022/10/11 07:07:04;;;;;;;10.30;1.70;;;25.10;99.90;;;;;;5135956;27;20023;-83
2022/10/11 07:09:31;;;;;;;5.65;1.77;;;25.10;99.90;;;;;;5136646;27;20041;-82
2022/10/11 07:11:57;;;;;;;5.72;1.70;;;25.30;99.90;;;;;;5136326;27;20033;-82
2022/10/11 07:14:23;;;;;;;12.48;1.80;;;25.50;99.90;;;;;;5135779;27;20016;-82
2022/10/11 07:16:49;;;;;;;7.18;1.58;;;25.90;99.90;;;;;;5117279;27;20027;-82
2022/10/11 07:19:15;;;;;;;8.10;2.08;;;26.20;99.90;;;;;;5135731;27;20020;-82
2022/10/11 07:21:41;;;;;;;6.75;2.15;;;26.60;99.90;;;;;;5135704;27;20118;-82
2022/10/11 07:24:07;;;;;;;8.05;2.22;;;26.20;99.90;;;;;;5135486;27;20019;-74
2022/10/11 07:26:33;;;;;;;9.88;2.10;;;25.40;99.90;;;;;;5135761;27;20047;-77
2022/10/11 07:28:59;;;;;;;9.60;2.22;;;25.10;99.90;;;;;;5135696;27;20367;-74
2022/10/11 07:31:27;;;;;;;7.50;2.05;;;24.70;99.90;;;;;;5134336;27;20070;-73
2022/10/11 07:33:53;;;;;;;8.55;2.10;;;24.40;99.90;;;;;;5135056;27;20380;-73
2022/10/11 07:36:21;;;;;;;8.48;2.08;;;24.20;99.90;;;;;;5116496;27;20064;-73
2022/10/11 07:38:49;;;;;;;10.02;2.30;;;23.90;99.90;;;;;;5135512;27;20122;-73
2022/10/11 07:41:15;;;;;;;8.82;2.30;;;23.70;99.90;;;;;;5134495;27;20125;-72
2022/10/11 07:43:46;;;;;;;6.80;2.10;;;23.50;99.90;;;;;;5135173;27;20074;-72
2022/10/11 07:46:13;;;;;;;10.82;1.90;;;23.40;99.90;;;;;;5132881;27;20488;-72
2022/10/11 07:48:39;;;;;;;;;;;23.50;99.90;;;;;;5131885;27;20049;-72
2022/10/11 07:51:11;;;;;;;9.23;2.20;;;23.60;99.90;;;;;;5134864;27;19907;-73
2022/10/11 07:53:41;;;;;;;7.25;2.13;;;23.80;99.90;;;;;;5134182;27;20236;-71
2022/10/11 07:56:09;;;;;;;9.68;1.80;;;23.90;99.90;;;;;;5135267;27;20387;-72
2022/10/11 07:58:35;;;;;;;8.60;2.20;;;24.10;99.90;;;;;;5134978;27;20424;-72
2022/10/11 08:01:01;;;;;;;5.32;2.03;;;24.40;99.90;;;;;;5134225;27;20051;-72
2022/10/11 08:03:27;;;;;;;9.65;1.70;;;24.50;99.90;;;;;;5134565;27;20037;-72
2022/10/11 08:05:53;;;;;;;8.93;2.03;;;24.60;99.90;;;;;;5134483;27;20442;-73
2022/10/11 08:08:23;;;;;;;9.55;2.35;;;24.80;99.90;;;;;;5133903;27;20027;-73
2022/10/11 08:10:49;;;;;;;10.07;1.77;;;25.20;99.90;;;;;;5133879;27;20027;-74
2022/10/11 08:13:16;;;;;;;8.52;2.05;;;25.30;99.90;;;;;;5133921;27;20019;-73
2022/10/11 08:15:42;;;;;;;6.90;2.00;;;25.40;99.90;;;;;;5115187;27;20035;-75
2022/10/11 08:18:08;;;;;;;7.07;1.80;;;25.50;99.90;;;;;;5134332;27;20037;-75
2022/10/11 08:20:36;;;;;;;10.55;1.80;;;25.70;99.90;;;;;;5134698;27;20096;-74
2022/10/11 08:23:02;;;;;;;9.85;2.40;;;25.90;99.90;;;;;;5115800;27;20084;-74
2022/10/11 08:25:28;;;;;;;12.88;2.35;;;26.00;99.90;;;;;;5134617;27;20054;-75
2022/10/11 08:27:55;;;;;;;12.20;2.30;;;26.10;99.90;;;;;;5134885;27;20464;-75
2022/10/11 08:30:21;;;;;;;14.13;1.98;;;26.30;99.90;;;;;;5134520;27;20102;-75
2022/10/11 08:32:47;;;;;;;10.40;1.67;;;26.10;99.90;;;;;;5134635;27;20031;-76
2022/10/11 08:35:13;;;;;;;11.75;2.05;;;25.90;99.90;;;;;;5134586;27;20111;-77
2022/10/11 08:37:39;;;;;;;19.05;2.00;;;25.90;99.90;;;;;;5134263;27;20027;-78
2022/10/11 08:40:06;;;;;;;15.85;1.90;;;25.70;99.90;;;;;;5133985;27;20059;-73
2022/10/11 08:42:49;;;;;;;13.55;1.95;;;25.60;99.90;;;;;;5133661;27;20091;-81
2022/10/11 08:45:36;;;;;;;10.23;2.17;;;25.60;99.90;;;;;;5134185;27;20509;-78
2022/10/11 08:48:29;;;;;;;7.43;1.80;;;25.60;99.90;;;;;;5115353;27;20379;-80
2022/10/11 08:50:56;;;;;;;11.63;2.30;;;25.80;99.90;;;;;;5133992;27;20467;-79
2022/10/11 08:54:06;;;;;;;17.85;2.53;;;25.60;99.90;;;;;;5115569;27;20395;-79
2022/10/11 08:56:36;;;;;;;16.95;2.40;;;25.70;99.90;;;;;;5132917;27;20036;-79
2022/10/11 08:59:42;;;;;;;10.18;2.55;;;25.50;99.90;;;;;;5133615;27;20447;-81
2022/10/11 09:02:39;;;;;;;13.05;2.60;;;25.50;99.90;;;;;;5133761;27;20057;-81
2022/10/11 09:05:31;;;;;;;12.80;2.22;;;25.60;99.90;;;;;;5133700;27;20113;-79
2022/10/11 09:08:33;;;;;;;12.35;2.30;;;25.80;99.90;;;;;;5133351;27;20031;-81
2022/10/11 09:11:48;;;;;;;11.43;1.90;;;26.10;99.90;;;;;;5101481;27;20034;-78
2022/10/11 09:14:37;;;;;;;;;;;26.50;99.90;;;;;;5134315;27;20114;-81
2022/10/11 09:17:32;;;;;;;10.35;2.70;;;26.90;99.90;;;;;;5101018;27;19903;-82
2022/10/11 09:20:29;;;;;;;11.93;2.60;;;27.10;99.90;;;;;;5132933;27;20072;-80
2022/10/11 09:22:55;;;;;;;10.20;2.28;;;27.10;99.90;;;;;;5133028;27;20034;-80
2022/10/11 09:25:24;;;;;;;12.80;2.35;;;27.10;99.90;;;;;;5133444;27;20506;-82
2022/10/11 09:28:04;;;;;;;12.35;2.67;;;26.90;99.90;;;;;;5114686;27;20035;-82
2022/10/11 09:30:32;;;;;;;14.00;2.50;;;26.80;99.90;;;;;;5133373;27;20113;-81
2022/10/11 09:33:13;;;;;;;10.45;1.90;;;26.80;99.90;;;;;;5114411;27;20474;-82
2022/10/11 09:35:44;;;;;;;17.05;2.95;;;26.80;99.90;;;;;;5133578;27;20105;-81
2022/10/11 09:38:41;;;;;;;15.95;2.40;;;26.80;99.90;;;;;;5133796;27;20098;-80
2022/10/11 09:41:15;;;;;;;16.70;2.47;;;26.70;99.90;;;;;;5132844;27;20039;-80
2022/10/11 09:43:49;;;;;;;13.77;2.85;;;26.50;99.90;;;;;;5132788;27;20023;-81
2022/10/11 09:46:28;;;;;;;10.10;2.70;;;26.50;99.90;;;;;;5114639;27;20102;-80
2022/10/11 09:48:56;;;;;;;14.63;2.88;;;26.30;99.90;;;;;;5132620;27;20098;-81
2022/10/11 09:51:26;;;;;;;10.90;2.55;;;26.50;99.90;;;;;;5132870;27;20129;-82
2022/10/11 09:53:58;;;;;;;13.40;2.65;;;26.70;99.90;;;;;;5132132;27;20385;-80
2022/10/11 09:56:27;;;;;;;15.77;3.05;;;26.80;99.90;;;;;;5132310;27;20026;-79
2022/10/11 09:59:20;;;;;;;17.13;3.00;;;26.90;99.90;;;;;;5132992;28;20072;-80
2022/10/11 10:01:46;;;;;;;14.38;2.47;;;27.10;99.90;;;;;;5132610;28;20047;-80
2022/10/11 10:04:18;;;;;;;11.27;2.33;;;27.30;99.90;;;;;;5132525;28;20023;-80
2022/10/11 10:06:44;;;;;;;11.30;2.33;;;27.50;99.90;;;;;;5132238;28;20098;-80
2022/10/11 10:09:29;;;;;;;18.63;2.80;;;27.70;99.90;;;;;;5132169;28;20023;-80
2022/10/11 10:11:55;;;;;;;14.10;2.35;;;27.90;99.90;;;;;;5132516;28;20027;-81
2022/10/11 10:14:27;;;;;;;16.85;2.53;;;27.90;99.90;;;;;;5132472;28;20051;-80
2022/10/11 10:17:03;;;;;;;16.20;2.70;;;28.10;99.90;;;;;;5113750;28;20479;-80
2022/10/11 10:19:41;;;;;;;17.13;3.20;;;28.10;99.90;;;;;;5132489;28;20019;-81
2022/10/11 10:22:17;;;;;;;14.70;2.88;;;28.20;99.90;;;;;;5113997;28;20269;-81
2022/10/11 10:24:44;;;;;;;13.43;2.50;;;28.30;99.90;;;;;;5132733;28;20114;-80
2022/10/11 10:27:11;;;;;;;14.32;2.30;;;28.30;99.90;;;;;;5132557;28;20054;-81
2022/10/11 10:29:37;;;;;;;17.63;2.42;;;28.40;99.90;;;;;;5114743;28;20038;-80
2022/10/11 10:32:19;;;;;;;20.55;2.75;;;28.50;99.90;;;;;;5114333;28;20126;-81
2022/10/11 10:35:14;;;;;;;17.30;2.30;;;28.40;99.90;;;;;;5114286;28;20046;-80
2022/10/11 10:38:06;;;;;;;11.40;2.50;;;28.00;99.90;;;;;;5114295;28;20023;-81
2022/10/11 10:40:38;;;;;;;13.88;2.65;;;28.00;99.90;;;;;;5114123;28;20036;-80
2022/10/11 10:43:04;;;;;;;13.30;2.50;;;27.90;99.90;;;;;;5132824;28;20019;-80
2022/10/11 10:46:03;;;;;;;16.52;2.50;;;27.80;99.90;;;;;;5132519;28;20123;-80
2022/10/11 10:49:13;;;;;;;15.55;2.85;;;27.60;99.90;;;;;;5132857;28;20024;-81
2022/10/11 10:52:04;;;;;;;20.45;2.88;;;27.60;99.90;;;;;;5028843;28;20030;-80
2022/10/11 10:54:44;;;;;;;11.02;3.00;;;27.80;99.90;;;;;;5029267;28;20060;-80
2022/10/11 10:57:17;;;;;;;17.02;3.25;;;27.90;99.90;;;;;;5028765;28;20090;-80
2022/10/11 11:00:01;;;;;;;20.05;2.80;;;28.20;99.90;;;;;;5028924;28;20033;-81
2022/10/11 11:03:04;;;;;;;12.25;2.33;;;28.20;99.90;;;;;;5026583;28;20092;-81
2022/10/11 11:05:54;;;;;;;14.13;2.05;;;28.20;99.90;;;;;;5028212;28;20039;-81
2022/10/11 11:08:39;;;;;;;13.40;2.40;;;28.40;99.90;;;;;;5033493;28;20034;-82
2022/10/11 11:11:57;;;;;;;13.52;2.25;;;28.50;99.90;;;;;;5032152;28;20059;-82
2022/10/11 11:14:50;;;;;;;14.68;2.53;;;28.30;99.90;;;;;;4953071;29;20043;-81
2022/10/11 11:17:35;;;;;;;14.23;2.22;;;28.20;99.90;;;;;;4953547;29;20115;-81
2022/10/11 11:20:36;;;;;;;18.38;4.43;;;28.40;99.90;;;;;;4954350;29;20039;-81
2022/10/11 11:23:33;;;;;;;13.93;2.90;;;28.60;99.90;;;;;;4997735;28;20128;-79
2022/10/11 11:26:22;;;;;;;18.88;2.58;;;28.60;99.90;;;;;;5028294;28;20036;-80
2022/10/11 11:29:19;;;;;;;12.10;2.42;;;28.50;99.90;;;;;;5032023;28;20171;-81
2022/10/11 11:32:00;;;;;;;18.15;2.97;;;28.60;99.90;;;;;;5015419;28;20069;-79
2022/10/11 11:34:40;;;;;;;14.32;2.60;;;28.70;99.90;;;;;;5032557;28;20033;-81
2022/10/11 11:37:30;;;;;;;13.52;2.75;;;28.70;99.90;;;;;;5032773;28;20382;-82
2022/10/11 11:40:03;;;;;;;12.75;2.67;;;28.70;99.90;;;;;;5032624;28;20354;-81
2022/10/11 11:42:42;;;;;;;13.18;2.75;;;28.60;99.90;;;;;;5032100;28;20029;-80
2022/10/11 11:45:40;;;;;;;17.60;2.50;;;28.80;99.90;;;;;;5032211;28;20076;-72
2022/10/11 11:48:16;;;;;;;21.85;2.28;;;28.80;99.90;;;;;;5000243;28;20044;-70
2022/10/11 11:50:47;;;;;;;19.17;2.92;;;28.90;99.90;;;;;;5097968;28;20035;-72
2022/10/11 11:53:23;;;;;;;14.18;2.95;;;28.90;99.90;;;;;;5114341;28;20374;-72
2022/10/11 11:56:00;;;;;;;20.00;2.90;;;28.90;99.90;;;;;;5114408;28;20019;-71
2022/10/11 11:58:50;;;;;;;18.55;2.85;;;28.90;99.90;;;;;;5114345;27;20072;-70
2022/10/11 12:01:38;;;;;;;16.52;2.42;;;29.00;99.90;;;;;;5112565;28;20059;-70
2022/10/11 12:04:22;;;;;;;18.80;2.65;;;28.60;99.90;;;;;;5113140;28;20027;-76
2022/10/11 12:07:12;;;;;;;22.25;3.13;;;28.70;99.90;;;;;;5114898;28;20051;-81
2022/10/11 12:09:40;;;;;;;20.63;2.60;;;28.80;99.90;;;;;;5114822;28;20030;-77
2022/10/11 12:12:25;;;;;;;11.15;2.30;;;28.80;99.90;;;;;;5113118;28;20030;-76
2022/10/11 12:15:07;;;;;;;18.10;2.70;;;28.80;99.90;;;;;;5114770;28;20026;-78
2022/10/11 12:17:57;;;;;;;15.20;3.00;;;28.80;99.90;;;;;;5112939;28;20039;-75
2022/10/11 12:20:23;;;;;;;14.57;2.47;;;28.80;99.90;;;;;;5102196;28;20047;-80
2022/10/11 12:22:49;;;;;;;15.95;3.00;;;28.90;99.90;;;;;;5113529;28;20391;-78
2022/10/11 12:25:15;;;;;;;20.00;2.55;;;28.90;99.90;;;;;;5113249;28;20038;-81
2022/10/11 12:27:46;;;;;;;16.38;2.78;;;29.00;99.90;;;;;;5114956;28;20102;-78
2022/10/11 12:30:43;;;;;;;16.23;2.75;;;28.90;99.90;;;;;;5115212;28;20111;-79
2022/10/11 12:33:22;;;;;;;13.77;2.45;;;29.00;99.90;;;;;;5113058;28;20471;-76
2022/10/11 12:35:56;;;;;;;10.70;2.72;;;28.90;99.90;;;;;;5114728;28;20055;-76
2022/10/11 12:38:38;;;;;;;19.00;2.72;;;28.80;99.90;;;;;;5112894;28;20479;-77
2022/10/11 12:41:15;;;;;;;16.83;2.35;;;28.80;99.90;;;;;;5113384;28;20489;-76
2022/10/11 12:43:47;;;;;;;19.17;2.58;;;28.80;99.90;;;;;;5112710;28;20122;-77
2022/10/11 12:46:28;;;;;;;22.33;2.88;;;28.70;99.90;;;;;;5114064;28;20039;-76
2022/10/11 12:49:13;;;;;;;16.67;2.30;;;28.80;99.90;;;;;;5114076;28;20541;-77
2022/10/11 12:51:50;;;;;;;12.23;2.40;;;28.70;99.90;;;;;;5113877;28;20119;-76
2022/10/11 12:54:37;;;;;;;12.55;2.35;;;28.80;99.90;;;;;;5114091;28;20493;-77
2022/10/11 12:57:41;;;;;;;13.65;2.28;;;28.80;99.90;;;;;;5113732;28;20024;-77
2022/10/11 13:00:19;;;;;;;12.88;2.15;;;28.80;99.90;;;;;;5114042;28;20118;-76
2022/10/11 13:02:47;;;;;;;15.27;2.40;;;28.70;99.90;;;;;;5113273;28;20085;-77
2022/10/11 13:05:24;;;;;;;16.30;2.00;;;28.60;99.90;;;;;;5113228;28;20031;-76
2022/10/11 13:07:56;;;;;;;12.95;2.30;;;28.60;99.90;;;;;;5111839;28;20028;-77
2022/10/11 13:10:34;;;;;;;16.52;2.28;;;28.40;99.90;;;;;;5113009;28;20129;-78
2022/10/11 13:13:03;;;;;;;17.38;2.13;;;28.30;99.90;;;;;;5113632;28;20047;-77